createdAt,value
2022-08-21T00:01:03.292Z,79.90
2022-08-21T00:03:35.148Z,79.90
2022-08-21T00:06:03.124Z,79.90
2022-08-21T00:08:31.167Z,80.10
2022-08-21T00:10:59.010Z,79.90
2022-08-21T00:13:27.076Z,80.90
2022-08-21T00:15:56.238Z,80.40
2022-08-21T00:18:24.863Z,80.60
2022-08-21T00:20:53.356Z,80.90
2022-08-21T00:23:21.286Z,81.40
2022-08-21T00:25:49.301Z,82.30
2022-08-21T00:28:17.650Z,82.00
2022-08-21T00:30:45.782Z,82.10
2022-08-21T00:33:15.351Z,82.00
2022-08-21T00:35:44.894Z,82.70
2022-08-21T00:38:12.946Z,83.40
2022-08-21T00:40:48.784Z,83.80
2022-08-21T00:43:19.674Z,83.80
2022-08-21T00:45:48.009Z,84.50
2022-08-21T00:48:17.565Z,86.20
2022-08-21T00:50:52.335Z,85.20
2022-08-21T00:53:20.566Z,84.80
2022-08-21T00:55:49.043Z,85.80
2022-08-21T00:58:18.882Z,86.80
2022-08-21T01:00:51.450Z,87.30
2022-08-21T01:03:24.374Z,88.60
2022-08-21T01:05:52.961Z,87.70
2022-08-21T01:08:22.645Z,87.10
2022-08-21T01:10:51.133Z,86.10
2022-08-21T01:13:27.466Z,86.60
2022-08-21T01:15:57.829Z,88.30
2022-08-21T01:18:28.383Z,88.80
2022-08-21T01:21:07.637Z,90.20
2022-08-21T01:23:35.987Z,89.60
2022-08-21T01:26:04.315Z,89.40
2022-08-21T01:28:38.719Z,90.30
2022-08-21T01:31:09.214Z,90.10
2022-08-21T01:33:37.497Z,90.80
2022-08-21T01:36:07.255Z,91.60
2022-08-21T01:38:35.555Z,91.10
2022-08-21T01:41:03.381Z,90.80
2022-08-21T01:43:39.249Z,90.50
2022-08-21T01:46:07.863Z,90.30
2022-08-21T01:48:36.443Z,90.90
2022-08-21T01:51:06.346Z,90.80
2022-08-21T01:53:36.558Z,91.00
2022-08-21T01:56:06.275Z,91.00
2022-08-21T01:58:41.477Z,91.40
2022-08-21T02:01:10.297Z,91.20
2022-08-21T02:03:39.357Z,91.00
2022-08-21T02:06:14.000Z,90.70
2022-08-21T02:08:42.029Z,91.20
2022-08-21T02:11:09.897Z,91.20
2022-08-21T02:13:38.220Z,91.50
2022-08-21T02:16:07.653Z,91.60
2022-08-21T02:18:35.871Z,91.40
2022-08-21T02:21:04.860Z,91.90
2022-08-21T02:23:34.296Z,92.00
2022-08-21T02:26:04.015Z,91.90
2022-08-21T02:28:32.281Z,92.00
2022-08-21T02:31:00.491Z,92.20
2022-08-21T02:33:29.264Z,92.20
2022-08-21T02:35:58.296Z,92.60
2022-08-21T02:38:28.370Z,92.30
2022-08-21T02:40:58.229Z,92.60
2022-08-21T02:43:28.498Z,92.40
2022-08-21T02:45:57.721Z,92.90
2022-08-21T02:48:28.286Z,93.10
2022-08-21T02:50:58.426Z,92.60
2022-08-21T02:53:27.289Z,92.80
2022-08-21T02:55:59.003Z,92.90
2022-08-21T02:58:29.261Z,92.30
2022-08-21T03:00:57.751Z,92.70
2022-08-21T03:03:25.709Z,92.80
2022-08-21T03:05:53.687Z,92.50
2022-08-21T03:08:22.195Z,92.70
2022-08-21T03:10:53.486Z,92.50
2022-08-21T03:13:23.045Z,93.60
2022-08-21T03:15:51.591Z,94.00
2022-08-21T03:18:19.819Z,93.80
2022-08-21T03:20:48.814Z,93.90
2022-08-21T03:23:19.048Z,93.20
2022-08-21T03:25:49.376Z,93.50
2022-08-21T03:28:19.847Z,93.60
2022-08-21T03:30:51.894Z,93.40
2022-08-21T03:33:23.478Z,93.80
2022-08-21T03:35:59.687Z,93.60
2022-08-21T03:38:29.202Z,94.40
2022-08-21T03:40:57.166Z,94.90
2022-08-21T03:43:25.115Z,95.60
2022-08-21T03:45:54.538Z,95.40
2022-08-21T03:48:22.502Z,95.90
2022-08-21T03:50:50.506Z,96.10
2022-08-21T03:53:18.787Z,96.00
2022-08-21T03:55:47.759Z,95.50
2022-08-21T03:58:17.750Z,95.60
2022-08-21T04:00:46.733Z,95.10
2022-08-21T04:03:15.964Z,95.40
2022-08-21T04:05:46.162Z,96.30
2022-08-21T04:08:14.989Z,97.60
2022-08-21T04:10:43.309Z,98.30
2022-08-21T04:13:11.105Z,99.70
2022-08-21T04:15:39.053Z,98.70
2022-08-21T04:18:07.363Z,98.10
2022-08-21T04:20:36.930Z,97.50
2022-08-21T04:23:05.140Z,97.50
2022-08-21T04:25:33.332Z,97.80
2022-08-21T04:28:02.945Z,97.50
2022-08-21T04:30:31.290Z,97.80
2022-08-21T04:33:00.430Z,97.80
2022-08-21T04:35:29.790Z,98.20
2022-08-21T04:37:59.470Z,98.00
2022-08-21T04:40:29.601Z,99.40
2022-08-21T04:43:00.755Z,99.40
2022-08-21T04:45:30.740Z,99.00
2022-08-21T04:48:00.502Z,98.80
2022-08-21T04:50:32.508Z,98.30
2022-08-21T04:53:08.899Z,97.60
2022-08-21T04:55:38.721Z,97.00
2022-08-21T04:58:07.169Z,97.10
2022-08-21T05:00:35.057Z,96.90
2022-08-21T05:03:04.989Z,97.20
2022-08-21T05:05:33.737Z,97.10
2022-08-21T05:08:04.330Z,96.70
2022-08-21T05:10:33.864Z,96.90
2022-08-21T05:13:02.436Z,97.50
2022-08-21T05:15:31.076Z,97.70
2022-08-21T05:18:00.880Z,97.20
2022-08-21T05:20:30.046Z,97.90
2022-08-21T05:22:58.531Z,98.20
2022-08-21T05:25:28.205Z,99.00
2022-08-21T05:28:00.565Z,98.00
2022-08-21T05:30:28.683Z,99.30
2022-08-21T05:32:59.609Z,99.20
2022-08-21T05:35:28.875Z,98.20
2022-08-21T05:37:57.517Z,98.20
2022-08-21T05:40:26.314Z,99.00
2022-08-21T05:42:55.920Z,99.20
2022-08-21T05:45:42.595Z,99.20
2022-08-21T05:48:13.909Z,99.70
2022-08-21T05:50:42.285Z,99.40
2022-08-21T05:53:11.584Z,99.60
2022-08-21T05:55:44.783Z,99.90
2022-08-21T05:58:13.603Z,99.90
2022-08-21T06:00:43.124Z,99.50
2022-08-21T06:03:13.943Z,98.50
2022-08-21T06:05:41.974Z,98.90
2022-08-21T06:08:09.974Z,97.70
2022-08-21T06:10:37.825Z,98.40
2022-08-21T06:13:06.257Z,97.80
2022-08-21T06:15:34.156Z,97.60
2022-08-21T06:18:03.925Z,96.60
2022-08-21T06:20:32.411Z,97.10
2022-08-21T06:23:00.618Z,98.00
2022-08-21T06:25:28.595Z,97.10
2022-08-21T06:28:03.195Z,97.70
2022-08-21T06:30:31.184Z,97.00
2022-08-21T06:32:59.354Z,96.80
2022-08-21T06:35:29.898Z,96.30
2022-08-21T06:37:58.653Z,96.50
2022-08-21T06:40:27.250Z,96.30
2022-08-21T06:42:58.433Z,96.10
2022-08-21T06:45:29.958Z,95.50
2022-08-21T06:48:00.512Z,95.40
2022-08-21T06:50:30.206Z,95.60
2022-08-21T06:53:04.072Z,95.20
2022-08-21T06:55:32.130Z,95.60
2022-08-21T06:58:00.126Z,95.30
2022-08-21T07:00:28.158Z,94.90
2022-08-21T07:02:56.106Z,93.70
2022-08-21T07:05:26.492Z,93.20
2022-08-21T07:07:55.693Z,92.90
2022-08-21T07:10:24.655Z,92.10
2022-08-21T07:13:00.948Z,91.90
2022-08-21T07:15:30.595Z,90.80
2022-08-21T07:17:59.300Z,90.80
2022-08-21T07:20:28.011Z,90.10
2022-08-21T07:22:58.178Z,88.30
2022-08-21T07:25:26.182Z,87.00
2022-08-21T07:27:54.226Z,86.20
2022-08-21T07:30:22.386Z,85.20
2022-08-21T07:32:51.043Z,83.50
2022-08-21T07:35:19.571Z,83.50
2022-08-21T07:37:48.226Z,82.90
2022-08-21T07:40:19.057Z,82.80
2022-08-21T07:42:50.840Z,82.50
2022-08-21T07:45:20.069Z,82.70
2022-08-21T07:47:48.351Z,82.80
2022-08-21T07:50:17.080Z,84.40
2022-08-21T07:52:45.350Z,82.30
2022-08-21T07:55:17.341Z,82.10
2022-08-21T07:57:46.847Z,85.70
2022-08-21T08:00:17.543Z,84.70
2022-08-21T08:02:50.262Z,84.00
2022-08-21T08:05:19.755Z,83.50
2022-08-21T08:07:48.514Z,82.10
2022-08-21T08:10:17.505Z,78.40
2022-08-21T08:12:47.316Z,79.50
2022-08-21T08:15:18.531Z,79.00
2022-08-21T08:17:46.353Z,77.00
2022-08-21T08:20:16.406Z,73.80
2022-08-21T08:22:44.806Z,74.80
2022-08-21T08:25:19.373Z,75.80
2022-08-21T08:27:48.867Z,74.80
2022-08-21T08:30:19.276Z,68.00
2022-08-21T08:32:50.397Z,70.90
2022-08-21T08:35:18.743Z,73.10
2022-08-21T08:37:52.661Z,71.20
2022-08-21T08:40:25.506Z,67.50
2022-08-21T08:42:54.735Z,65.60
2022-08-21T08:45:25.193Z,67.70
2022-08-21T08:47:58.959Z,64.80
2022-08-21T08:50:42.215Z,65.90
2022-08-21T08:53:16.155Z,64.90
2022-08-21T08:55:46.129Z,66.50
2022-08-21T08:58:22.155Z,66.20
2022-08-21T09:00:52.572Z,64.90
2022-08-21T09:03:21.081Z,67.90
2022-08-21T09:05:56.770Z,66.60
2022-08-21T09:08:50.146Z,67.50
2022-08-21T09:11:29.089Z,64.50
2022-08-21T09:14:10.565Z,65.20
2022-08-21T09:16:48.526Z,64.70
2022-08-21T09:19:35.094Z,63.90
2022-08-21T09:22:10.649Z,66.20
2022-08-21T09:24:51.393Z,63.90
2022-08-21T09:27:21.728Z,65.50
2022-08-21T09:29:55.351Z,64.40
2022-08-21T09:32:37.049Z,66.70
2022-08-21T09:35:10.059Z,62.20
2022-08-21T09:38:00.069Z,62.70
2022-08-21T09:40:33.532Z,64.00
2022-08-21T09:43:03.862Z,63.10
2022-08-21T09:45:34.502Z,61.60
2022-08-21T09:48:13.513Z,61.40
2022-08-21T09:50:42.589Z,61.80
2022-08-21T09:53:20.217Z,55.70
2022-08-21T09:56:12.214Z,55.70
2022-08-21T09:58:42.294Z,57.50
2022-08-21T10:01:16.130Z,58.80
2022-08-21T10:03:44.268Z,60.20
2022-08-21T10:06:22.355Z,59.20
2022-08-21T10:08:50.361Z,56.50
2022-08-21T10:11:19.502Z,59.60
2022-08-21T10:13:59.203Z,59.90
2022-08-21T10:16:41.007Z,57.30
2022-08-21T10:19:20.659Z,60.30
2022-08-21T10:22:04.219Z,60.20
2022-08-21T10:24:39.936Z,59.10
2022-08-21T10:27:20.230Z,58.60
2022-08-21T10:29:55.489Z,58.90
2022-08-21T10:32:49.204Z,59.80
2022-08-21T10:35:24.397Z,60.10
2022-08-21T10:38:05.158Z,60.20
2022-08-21T10:40:38.966Z,60.50
2022-08-21T10:43:20.471Z,57.20
2022-08-21T10:45:59.563Z,58.80
2022-08-21T10:48:35.262Z,58.30
2022-08-21T10:51:11.611Z,58.80
2022-08-21T10:53:51.665Z,59.30
2022-08-21T10:56:24.037Z,59.50
2022-08-21T10:59:26.537Z,59.70
2022-08-21T11:02:01.213Z,59.90
2022-08-21T11:04:46.337Z,59.40
2022-08-21T11:07:27.182Z,58.90
2022-08-21T11:10:10.354Z,58.50
2022-08-21T11:12:46.182Z,58.10
2022-08-21T11:15:29.546Z,58.00
2022-08-21T11:18:06.019Z,59.60
2022-08-21T11:20:41.827Z,56.80
2022-08-21T11:23:16.609Z,57.70
2022-08-21T11:25:51.043Z,58.00
2022-08-21T11:28:24.632Z,57.50
2022-08-21T11:31:04.414Z,59.20
2022-08-21T11:33:45.521Z,57.10
2022-08-21T11:36:21.158Z,60.10
2022-08-21T11:38:59.019Z,59.30
2022-08-21T11:41:31.894Z,59.10
2022-08-21T11:44:10.281Z,58.50
2022-08-21T11:46:44.068Z,56.00
2022-08-21T11:49:42.937Z,58.70
2022-08-21T11:52:20.673Z,58.10
2022-08-21T11:54:55.086Z,58.60
2022-08-21T11:57:27.741Z,59.90
2022-08-21T12:00:02.245Z,59.30
2022-08-21T12:02:47.007Z,59.80
2022-08-21T12:05:29.920Z,60.10
2022-08-21T12:08:09.003Z,60.50
2022-08-21T12:10:40.667Z,59.80
2022-08-21T12:13:15.761Z,60.10
2022-08-21T12:15:43.703Z,60.60
2022-08-21T12:18:24.963Z,56.20
2022-08-21T12:21:03.372Z,59.80
2022-08-21T12:23:35.538Z,61.40
2022-08-21T12:26:27.253Z,61.50
2022-08-21T12:29:07.667Z,61.20
2022-08-21T12:31:35.579Z,61.60
2022-08-21T12:34:11.825Z,62.00
2022-08-21T12:36:47.217Z,61.70
2022-08-21T12:39:26.018Z,62.00
2022-08-21T12:42:02.135Z,59.20
2022-08-21T12:44:37.687Z,60.90
2022-08-21T12:47:07.885Z,62.20
2022-08-21T12:49:38.703Z,62.30
2022-08-21T12:52:13.150Z,62.40
2022-08-21T12:54:45.979Z,62.20
2022-08-21T12:57:22.203Z,62.50
2022-08-21T12:59:55.664Z,61.70
2022-08-21T13:02:27.590Z,62.50
2022-08-21T13:04:57.427Z,62.70
2022-08-21T13:07:30.206Z,62.10
2022-08-21T13:10:06.505Z,61.10
2022-08-21T13:12:35.850Z,62.00
2022-08-21T13:15:08.850Z,62.40
2022-08-21T13:17:40.444Z,62.20
2022-08-21T13:20:11.793Z,61.80
2022-08-21T13:22:44.446Z,61.80
2022-08-21T13:25:16.602Z,61.90
2022-08-21T13:27:48.345Z,61.00
2022-08-21T13:30:21.206Z,59.10
2022-08-21T13:32:52.893Z,57.80
2022-08-21T13:35:24.127Z,60.70
2022-08-21T13:37:53.418Z,61.90
2022-08-21T13:40:26.787Z,60.30
2022-08-21T13:42:55.367Z,56.10
2022-08-21T13:45:32.182Z,58.50
2022-08-21T13:48:06.431Z,61.50
2022-08-21T13:50:36.934Z,62.30
2022-08-21T13:53:07.526Z,61.60
2022-08-21T13:55:42.763Z,62.10
2022-08-21T13:58:12.415Z,56.50
2022-08-21T14:00:48.512Z,62.60
2022-08-21T14:03:28.997Z,62.30
2022-08-21T14:05:57.030Z,62.20
2022-08-21T14:08:33.156Z,60.50
2022-08-21T14:11:04.479Z,62.10
2022-08-21T14:13:39.541Z,57.40
2022-08-21T14:16:15.362Z,62.10
2022-08-21T14:18:48.184Z,61.20
2022-08-21T14:21:29.195Z,59.70
2022-08-21T14:24:10.165Z,61.40
2022-08-21T14:26:46.995Z,60.60
2022-08-21T14:29:18.372Z,60.80
2022-08-21T14:31:52.517Z,60.40
2022-08-21T14:34:20.773Z,63.70
2022-08-21T14:36:50.011Z,63.70
2022-08-21T14:39:18.322Z,63.40
2022-08-21T14:41:48.944Z,63.40
2022-08-21T14:44:18.373Z,62.70
2022-08-21T14:46:56.037Z,63.10
2022-08-21T14:49:27.130Z,55.80
2022-08-21T14:51:58.038Z,55.50
2022-08-21T14:54:28.756Z,56.50
2022-08-21T14:57:02.386Z,55.30
2022-08-21T14:59:30.487Z,55.50
2022-08-21T15:01:58.359Z,55.10
2022-08-21T15:04:26.363Z,54.70
2022-08-21T15:06:54.253Z,55.70
2022-08-21T15:09:22.072Z,55.70
2022-08-21T15:11:50.271Z,55.80
2022-08-21T15:14:22.330Z,54.00
2022-08-21T15:16:52.087Z,55.20
2022-08-21T15:19:20.353Z,54.50
2022-08-21T15:21:48.213Z,55.00
2022-08-21T15:24:16.136Z,53.10
2022-08-21T15:26:45.363Z,53.90
2022-08-21T15:29:13.169Z,53.70
2022-08-21T15:31:54.179Z,55.00
2022-08-21T15:34:25.396Z,54.70
2022-08-21T15:36:57.213Z,56.20
2022-08-21T15:39:31.308Z,54.80
2022-08-21T15:42:10.456Z,54.90
2022-08-21T15:44:40.405Z,56.50
2022-08-21T15:47:14.299Z,54.30
2022-08-21T15:49:45.804Z,55.60
2022-08-21T15:52:14.137Z,56.00
2022-08-21T15:54:42.133Z,55.50
2022-08-21T15:57:11.456Z,56.90
2022-08-21T15:59:43.770Z,55.40
2022-08-21T16:02:17.117Z,55.00
2022-08-21T16:04:45.043Z,54.00
2022-08-21T16:07:12.940Z,54.90
2022-08-21T16:09:41.123Z,55.00
2022-08-21T16:12:11.521Z,54.60
2022-08-21T16:14:39.899Z,55.10
2022-08-21T16:17:08.057Z,54.30
2022-08-21T16:19:38.392Z,54.10
2022-08-21T16:22:06.359Z,53.60
2022-08-21T16:24:34.337Z,54.60
2022-08-21T16:27:03.882Z,55.50
2022-08-21T16:29:37.844Z,54.20
2022-08-21T16:32:08.287Z,53.30
2022-08-21T16:34:39.163Z,53.80
2022-08-21T16:37:07.037Z,53.40
2022-08-21T16:39:34.897Z,54.50
2022-08-21T16:42:02.872Z,53.80
2022-08-21T16:44:31.135Z,54.70
2022-08-21T16:46:59.489Z,53.10
2022-08-21T16:49:27.431Z,54.40
2022-08-21T16:51:56.677Z,53.60
2022-08-21T16:54:25.350Z,55.40
2022-08-21T16:56:54.173Z,56.00
2022-08-21T16:59:22.419Z,54.40
2022-08-21T17:01:50.568Z,54.50
2022-08-21T17:04:18.609Z,55.10
2022-08-21T17:06:46.432Z,54.70
2022-08-21T17:09:15.677Z,54.10
2022-08-21T17:11:47.523Z,53.50
2022-08-21T17:14:19.467Z,54.10
2022-08-21T17:16:51.807Z,54.40
2022-08-21T17:19:20.752Z,53.90
2022-08-21T17:21:48.654Z,53.90
2022-08-21T17:24:17.837Z,54.10
2022-08-21T17:26:46.740Z,54.30
2022-08-21T17:29:16.311Z,54.20
2022-08-21T17:31:45.330Z,54.20
2022-08-21T17:34:15.722Z,54.30
2022-08-21T17:36:43.681Z,54.70
2022-08-21T17:39:12.848Z,54.00
2022-08-21T17:41:45.797Z,54.30
2022-08-21T17:44:18.478Z,54.10
2022-08-21T17:46:46.785Z,54.60
2022-08-21T17:49:15.877Z,53.90
2022-08-21T17:51:43.841Z,55.80
2022-08-21T17:54:11.791Z,54.70
2022-08-21T17:56:42.715Z,54.30
2022-08-21T17:59:13.001Z,54.00
2022-08-21T18:01:43.792Z,53.40
2022-08-21T18:04:13.269Z,53.10
2022-08-21T18:06:42.355Z,53.70
2022-08-21T18:09:12.651Z,54.30
2022-08-21T18:11:42.525Z,54.30
2022-08-21T18:14:12.565Z,53.90
2022-08-21T18:16:40.412Z,54.10
2022-08-21T18:19:15.218Z,54.40
2022-08-21T18:21:43.390Z,53.70
2022-08-21T18:24:11.281Z,54.20
2022-08-21T18:26:41.461Z,54.90
2022-08-21T18:29:13.257Z,54.60
2022-08-21T18:31:43.576Z,55.00
2022-08-21T18:34:20.228Z,55.20
2022-08-21T18:36:48.420Z,55.90
2022-08-21T18:39:35.518Z,55.70
2022-08-21T18:42:08.695Z,55.30
2022-08-21T18:44:38.657Z,55.80
2022-08-21T18:47:11.531Z,56.50
2022-08-21T18:49:40.183Z,56.80
2022-08-21T18:52:09.889Z,57.20
2022-08-21T18:54:37.860Z,57.50
2022-08-21T18:57:11.212Z,57.70
2022-08-21T18:59:42.056Z,58.60
2022-08-21T19:02:10.776Z,58.40
2022-08-21T19:04:44.657Z,58.10
2022-08-21T19:07:14.580Z,58.50
2022-08-21T19:09:52.967Z,58.50
2022-08-21T19:15:22.568Z,58.70
2022-08-21T19:17:52.593Z,59.30
2022-08-21T19:20:26.125Z,58.60
2022-08-21T19:22:55.372Z,59.40
2022-08-21T19:25:33.268Z,59.90
2022-08-21T19:28:18.873Z,58.70
2022-08-21T19:30:56.479Z,59.10
2022-08-21T19:33:29.486Z,58.90
2022-08-21T19:35:57.799Z,59.70
2022-08-21T19:38:26.073Z,59.60
2022-08-21T19:40:54.352Z,60.00
2022-08-21T19:43:23.536Z,60.00
2022-08-21T19:45:56.236Z,60.60
2022-08-21T19:48:25.192Z,59.70
2022-08-21T19:50:54.288Z,60.00
2022-08-21T19:53:22.454Z,59.80
2022-08-21T19:55:50.874Z,60.20
2022-08-21T19:58:30.521Z,59.90
2022-08-21T20:00:59.898Z,60.10
2022-08-21T20:03:28.347Z,59.70
2022-08-21T20:05:56.518Z,61.20
2022-08-21T20:08:24.695Z,60.90
2022-08-21T20:10:58.681Z,61.30
2022-08-21T20:13:33.545Z,61.60
2022-08-21T20:16:05.641Z,62.60
2022-08-21T20:18:34.637Z,62.90
2022-08-21T20:21:04.795Z,63.70
2022-08-21T20:23:34.057Z,63.80
2022-08-21T20:26:02.231Z,63.70
2022-08-21T20:28:34.069Z,63.70
2022-08-21T20:31:03.826Z,64.30
2022-08-21T20:33:37.504Z,64.90
2022-08-21T20:36:06.127Z,65.50
2022-08-21T20:38:34.152Z,65.50
2022-08-21T20:41:02.257Z,65.30
2022-08-21T20:43:32.419Z,67.10
2022-08-21T20:46:01.359Z,66.80
2022-08-21T20:48:49.504Z,66.80
2022-08-21T20:51:24.118Z,66.80
2022-08-21T20:54:00.398Z,66.40
2022-08-21T20:56:39.164Z,66.90
2022-08-21T20:59:17.171Z,66.80
2022-08-21T21:01:48.647Z,66.90
2022-08-21T21:04:33.753Z,67.60
2022-08-21T21:07:06.543Z,67.80
2022-08-21T21:09:43.439Z,68.00
2022-08-21T21:12:17.983Z,68.80
2022-08-21T21:14:59.169Z,68.90
2022-08-21T21:17:32.197Z,69.50
2022-08-21T21:20:07.717Z,69.50
2022-08-21T21:22:43.338Z,70.00
2022-08-21T21:25:16.867Z,70.00
2022-08-21T21:27:50.765Z,69.70
2022-08-21T21:30:22.585Z,69.70
2022-08-21T21:32:50.791Z,70.10
2022-08-21T21:35:32.711Z,70.10
2022-08-21T21:38:15.341Z,70.10
2022-08-21T21:40:52.168Z,70.10
2022-08-21T21:43:32.204Z,70.70
2022-08-21T21:46:14.980Z,70.60
2022-08-21T21:48:59.347Z,71.80
2022-08-21T21:51:42.314Z,72.00
2022-08-21T21:54:26.509Z,72.90
2022-08-21T21:57:03.801Z,73.10
2022-08-21T21:59:54.445Z,72.80
2022-08-21T22:02:34.806Z,73.20
2022-08-21T22:05:10.617Z,74.00
2022-08-21T22:07:44.601Z,73.90
2022-08-21T22:10:30.658Z,73.60
2022-08-21T22:13:14.894Z,73.90
2022-08-21T22:15:54.375Z,74.10
2022-08-21T22:18:26.174Z,74.90
2022-08-21T22:20:58.293Z,75.10
2022-08-21T22:23:32.726Z,74.60
2022-08-21T22:26:05.481Z,74.60
2022-08-21T22:28:40.023Z,75.40
2022-08-21T22:31:24.629Z,75.10
2022-08-21T22:34:04.529Z,76.50
2022-08-21T22:36:35.695Z,77.00
2022-08-21T22:39:08.733Z,78.00
2022-08-21T22:41:41.614Z,77.20
2022-08-21T22:44:20.941Z,77.40
2022-08-21T22:46:51.275Z,76.60
2022-08-21T22:49:33.314Z,75.70
2022-08-21T22:52:11.743Z,75.70
2022-08-21T22:57:35.334Z,76.30
2022-08-21T23:00:10.601Z,77.00
2022-08-21T23:02:45.936Z,77.20
2022-08-21T23:05:19.732Z,76.30
2022-08-21T23:07:50.119Z,76.40
2022-08-21T23:10:31.701Z,77.10
2022-08-21T23:13:06.185Z,78.00
2022-08-21T23:15:46.432Z,77.20
2022-08-21T23:18:25.870Z,77.50
2022-08-21T23:21:01.133Z,78.80
2022-08-21T23:23:35.589Z,78.70
2022-08-21T23:26:17.394Z,79.60
2022-08-21T23:29:07.706Z,80.40
2022-08-21T23:31:43.015Z,79.80
2022-08-21T23:34:21.654Z,80.80
2022-08-21T23:37:23.490Z,81.20
2022-08-21T23:40:04.178Z,81.50
2022-08-21T23:42:53.585Z,82.20
2022-08-21T23:45:33.278Z,82.50
2022-08-21T23:48:11.005Z,84.30
2022-08-21T23:50:51.156Z,84.30
2022-08-21T23:53:28.368Z,83.50
2022-08-21T23:56:07.911Z,84.30
2022-08-21T23:58:50.230Z,85.80
